Pleasant Point, Maine
Current Conditions -  °F | °C
As of 1:00 AM on Monday 22 Dec 2014 (Local Time) from CYSJ Reporting Station
Overcast Overcast  
Wind Chill: 17°   Ceiling: 3300
Heat Index: 27°   Visibility: 10mi
Dew Point: 25°   Wind: 9mph
Humidity: 93%   Direction: 20°NNE
Pressure: 30.39"   Gusts: NA
Location:  44.9831°N, 67.1057°W
Report Text: CYSJ 220600Z 02008KT 10SM OVC033 M03/M04 A3039 RMK SC8 SLP298
Loading
Personal Weather Stations






























Interactive Weather Map New forecast layout! Learn more

10-Day Weather Forecast

Advertisements
Track Severe Weather on mobile